Richmond, Virginia
Current Conditions -  °F | °C
As of 5:54 AM on Tuesday 21 Oct 2014 (Local Time) from KRIC Reporting Station
Broken Clouds Broken Clouds  
Wind Chill: 55°   Ceiling: 11000
Heat Index: 55°   Visibility: 10mi
Dew Point: 47°   Wind: 3mph
Humidity: 74%   Direction: 190°S
Pressure: 29.88"   Gusts: NA
Location:  37.54°N, 77.43°W
Report Text: KRIC 210954Z 19003KT 10SM BKN110 13/08 A2988 RMK AO2 SLP123 T01280083
Loading
Personal Weather Stations






























Interactive Weather Map
Tropical Storm Tracking
New forecast layout! Learn more

10-Day Weather Forecast

Advertisements
Track Severe Weather on mobile